Terminal Aerodrome Forecast
Issued by NWS Albany, NY

Home | Current Version | Previous Version | Text Only | Print | Product List | Glossary On
Versions: 1 2 3 4 5 6 7 8 9 10 11 12 13 14 15 16 17 18
000
FTUS41 KALY 221100
TAFPOU
TAF
KPOU 221136Z 2212/2312 12004KT P6SM SCT015 OVC025
     FM221700 11005KT P6SM VCSH SCT025 BKN035
     FM230300 09004KT 6SM BR VCSH BKN025 OVC040
     FM230800 VRB03KT 4SM BR SCT008 OVC015=

USA.gov is the U.S. government's official web portal to all federal, state and local government web resources and services.